• Join FlightAware (Why Join?)
  • Login
  • US Flag 
04:52AM EDT


 

Airport Tracker/Info


-or-


 

Live Flight TrackerFlight Track Log ✈ SLI421 ✈ 29-Aug-2013 ✈ KMIA - MMMD / MID

Flight Track Log - Related Links

Times and Time Zones

All times are in EDT time to prevent confusion due to time zone crossing. See the SLI421 flight status page for this flight to view local times or setup timezone preferences in your user account.

Time Position Orientation Groundspeed Altitude Reporting Facility
EDT Latitude Longitude Course Direction KTS MPH feet Rate Location/Type
03:02PM 25.7983 -80.2697 112° Southeast 157 181 900  Level Miami Center
03:04PM 25.7689 -80.1883 112° Southeast 264 304 3,700 2,100 Climbing Miami Center
03:05PM 25.6756 -80.1489 159° South 292 336 7,000 2,160 Climbing Miami Center
03:06PM 25.6019 -80.1767 199° South 279 321 8,900 2,100 Climbing Miami Center
03:07PM 25.5300 -80.2186 208° Southwest 279 321 11,300 2,160 Climbing Miami Center
03:08PM 25.4539 -80.2578 205° Southwest 305 351 13,300 2,340 Climbing Miami Center
03:09PM 25.3692 -80.3083 208° Southwest 332 382 16,000 2,520 Climbing Miami Center
03:10PM 25.3064 -80.3961 232° Southwest 350 403 18,400 2,340 Climbing Miami Center
03:11PM 25.2539 -80.4981 240° Southwest 362 417 20,700 2,220 Climbing Miami Center
03:12PM 25.1992 -80.5997 239° Southwest 382 440 22,900 1,860 Climbing Miami Center
03:13PM 25.1400 -80.7081 239° Southwest 394 453 24,500 1,560 Climbing Miami Center
03:14PM 25.0828 -80.8164 240° Southwest 409 471 26,100 1,500 Climbing Miami Center
03:15PM 25.0233 -80.9292 240° Southwest 414 476 27,500 1,200 Climbing Miami Center
03:16PM 24.9572 -81.0461 238° Southwest 431 496 28,600 1,260 Climbing Miami Center
03:17PM 24.8933 -81.1653 239° Southwest 439 505 30,100 1,740 Climbing Miami Center
03:18PM 24.8294 -81.2819 239° Southwest 444 511 32,100 1,680 Climbing Miami Center
03:19PM 24.7653 -81.3986 239° Southwest 444 511 33,500 1,500 Climbing Miami Center
03:20PM 24.7011 -81.5128 238° Southwest 444 511 35,200 1,200 Climbing Miami Center
03:21PM 24.6392 -81.6225 238° Southwest 431 496 36,000 360 Climbing Miami Center
03:22PM 24.5769 -81.7386 240° Southwest 441 507 36,000  Level Miami Center
03:23PM 24.5078 -81.8683 240° Southwest 446 513 36,000  Level Miami Center
03:24PM 24.4689 -81.9717 248° West 434 499 36,000  Level Miami Center
03:25PM 24.4208 -82.0953 247° West 434 499 36,000  Level Miami Center
03:26PM 24.3686 -82.2114 244° Southwest 439 505 36,000  Level Miami Center
03:27PM 24.3161 -82.3300 244° Southwest 439 505 36,000  Level Miami Center
03:28PM 24.2639 -82.4461 244° Southwest 434 499 36,000  Level Miami Center
03:29PM 24.2136 -82.5622 245° Southwest 434 499 36,000  Level Miami Center
03:30PM 24.1611 -82.6781 244° Southwest 434 499 36,000  Level Miami Center
03:31PM 24.1125 -82.7964 246° West 434 499 36,000  Level Miami Center
03:32PM 24.0639 -82.9144 246° West 434 499 36,000  Level Miami Center
03:33PM 24.0092 -83.0322 243° Southwest 439 505 36,000  Level Miami Center
03:35PM 23.9413 -83.1704 245° Southwest  Level FlightAware Approximate
03:42PM 23.6051 -83.9151 244° Southwest  Level FlightAware Approximate
03:43PM 23.5569 -84.0212 244° Southwest  Level FlightAware Approximate
03:44PM 23.5086 -84.1273 244° Southwest  Level FlightAware Approximate
03:45PM 23.4603 -84.2333 244° Southwest  Level FlightAware Approximate
03:46PM 23.4119 -84.3392 244° Southwest  Level FlightAware Approximate
03:47PM 23.3634 -84.4450 243° Southwest  Level FlightAware Approximate
03:48PM 23.3148 -84.5508 243° Southwest  Level FlightAware Approximate
03:49PM 23.2662 -84.6565 243° Southwest  Level FlightAware Approximate
03:50PM 23.2175 -84.7621 243° Southwest  Level FlightAware Approximate
03:51PM 23.1668 -84.8665 242° Southwest  Level FlightAware Approximate
03:52PM 23.1149 -84.9702 241° Southwest  Level FlightAware Approximate
03:53PM 23.0643 -85.0746 243° Southwest  Level FlightAware Approximate
03:54PM 23.0141 -85.1792 242° Southwest  Level FlightAware Approximate
03:55PM 22.9638 -85.2838 242° Southwest  Level FlightAware Approximate
03:56PM 22.9135 -85.3882 242° Southwest  Level FlightAware Approximate
03:57PM 22.8631 -85.4926 242° Southwest  Level FlightAware Approximate
03:58PM 22.8127 -85.5969 242° Southwest  Level FlightAware Approximate
03:59PM 22.7621 -85.7011 242° Southwest  Level FlightAware Approximate
04:00PM 22.7115 -85.8053 242° Southwest  Level FlightAware Approximate
04:01PM 22.6609 -85.9094 242° Southwest  Level FlightAware Approximate
04:02PM 22.6107 -86.0137 245° Southwest  Level FlightAware Approximate
04:03PM 22.5644 -86.1200 245° Southwest  Level FlightAware Approximate
04:04PM 22.5180 -86.2263 245° Southwest  Level FlightAware Approximate
04:05PM 22.4715 -86.3325 245° Southwest  Level FlightAware Approximate
04:06PM 22.4250 -86.4386 245° Southwest  Level FlightAware Approximate
04:07PM 22.3781 -86.5445 243° Southwest  Level FlightAware Approximate
04:08PM 22.3291 -86.6493 243° Southwest  Level FlightAware Approximate
04:09PM 22.2800 -86.7539 243° Southwest  Level FlightAware Approximate
04:10PM 22.2308 -86.8585 243° Southwest  Level FlightAware Approximate
04:11PM 22.1815 -86.9630 243° Southwest  Level FlightAware Approximate
04:12PM 22.1322 -87.0675 243° Southwest  Level FlightAware Approximate
04:13PM 22.0829 -87.1718 243° Southwest  Level FlightAware Approximate
04:14PM 22.0334 -87.2761 243° Southwest  Level FlightAware Approximate
04:15PM 21.9905 -87.3665 243° Southwest  Level FlightAware Approximate
04:16PM 21.9501 -87.4581 247° West  Level FlightAware Approximate
04:17PM 21.9088 -87.5491 242° Southwest  Level FlightAware Approximate
04:18PM 21.8642 -87.6384 242° Southwest  Level FlightAware Approximate
04:19PM 21.8195 -87.7276 242° Southwest  Level FlightAware Approximate
04:20PM 21.7862 -87.8217 255° West  Level FlightAware Approximate
04:21PM 21.7383 -87.9083 237° Southwest  Level FlightAware Approximate
04:22PM 21.7063 -88.0027 240° Southwest  Level FlightAware Approximate
04:23PM 21.6591 -88.0903 240° Southwest  Level FlightAware Approximate
04:24PM 21.6119 -88.1779 240° Southwest  Level FlightAware Approximate
04:25PM 21.5686 -88.2677 245° Southwest  Level FlightAware Approximate
04:26PM 21.5293 -88.3596 245° Southwest  Level FlightAware Approximate
04:27PM 21.4899 -88.4515 245° Southwest  Level FlightAware Approximate
04:28PM 21.4529 -88.5442 242° Southwest  Level FlightAware Approximate
04:29PM 21.4085 -88.6333 242° Southwest  Level FlightAware Approximate
04:30PM 21.3640 -88.7224 242° Southwest  Level FlightAware Approximate
04:31PM 21.3194 -88.8114 242° Southwest  Level FlightAware Approximate
04:32PM 21.2762 -88.9011 247° West  Level FlightAware Approximate
04:33PM 21.2391 -88.9939 247° West  Level FlightAware Approximate
04:34PM 21.1991 -89.0852 242° Southwest  Level FlightAware Approximate
04:35PM 21.1547 -89.1741 242° Southwest  Level FlightAware Approximate
04:36PM 21.1112 -89.2636 247° West  Level FlightAware Approximate
04:37PM 21.0707 -89.3543 237° Southwest  Level FlightAware Approximate
04:38PM 21.0289 -89.4422 242° Southwest  Level FlightAware Approximate
04:39PM 20.9845 -89.5311 242° Southwest  Level FlightAware Approximate
04:40PM 20.9445 -89.6222 247° West  Level FlightAware Approximate
04:41PM 20.9167 -89.6500 180° South  Level FlightAware Approximate
04:42PM 20.9370 -89.6577 180° South  Level Estimated